Lake Tapps, Washington
Current Conditions -  °F | °C
As of 3:18 PM on Saturday 22 Nov 2014 (Local Time) from KTCM Reporting Station
Scattered Clouds Scattered Clouds  
Wind Chill: 52°   Ceiling: Unl
Heat Index: 52°   Visibility: 10mi
Dew Point: 45°   Wind: 13mph
Humidity: 76%   Direction: 230°SW
Pressure: 29.94"   Gusts: 18mph
Location:  47.1874°N, 122.164°W
Report Text: KTCM 222318Z AUTO 23011G16KT 10SM SCT025 11/07 A2994 RMK AO2 $
Loading
Personal Weather Stations






























Interactive Weather Map New forecast layout! Learn more

10-Day Weather Forecast

Advertisements
Track Severe Weather on mobile